Time;durP1;ratioP1;P1;durP2;ratioP2;P2;SDS_P1;SDS_P2;PMS_P1;PMS_P2;Temp;Humidity;BMP_temperature;BMP_pressure;BME280_temperature;BME280_humidity;BME280_pressure;Samples;Min_cycle;Max_cycle;Signal;HPM_P1;HPM_P2
2020/12/21 00:01:27;;;;;;;21.92;12.27;;;;;;;5.32;94.05;99789.91;5054962;28;20551;-80
2020/12/21 00:03:54;;;;;;;20.92;12.90;;;;;;;5.34;93.93;99783.53;5054508;28;20099;-79
2020/12/21 00:06:22;;;;;;;24.13;13.07;;;;;;;5.33;94.09;99788.06;5054227;28;20084;-80
2020/12/21 00:08:48;;;;;;;23.08;14.02;;;;;;;5.23;94.10;99765.63;5054474;28;20669;-80
2020/12/21 00:11:14;;;;;;;23.90;13.98;;;;;;;5.45;93.83;99781.59;5054108;28;20053;-79
2020/12/21 00:13:43;;;;;;;23.98;13.38;;;;;;;5.47;93.22;99789.53;5054842;28;20060;-79
2020/12/21 00:16:10;;;;;;;21.13;12.90;;;;;;;5.29;93.36;99787.47;5054391;28;20494;-79
2020/12/21 00:18:37;;;;;;;22.33;12.30;;;;;;;5.23;93.61;99768.31;5054267;28;20052;-79
2020/12/21 00:21:04;;;;;;;19.80;11.77;;;;;;;5.32;93.78;99797.97;5055383;28;20049;-79
2020/12/21 00:23:31;;;;;;;21.42;13.30;;;;;;;5.34;93.76;99797.00;5054642;28;20045;-79
2020/12/21 00:25:57;;;;;;;19.45;12.50;;;;;;;5.30;93.49;99778.41;5054851;28;20569;-79
2020/12/21 00:28:30;;;;;;;23.20;13.45;;;;;;;5.36;93.78;99779.72;5054853;28;20091;-79
2020/12/21 00:30:57;;;;;;;21.38;12.95;;;;;;;5.34;93.89;99778.13;5054529;28;20068;-78
2020/12/21 00:33:23;;;;;;;21.27;13.15;;;;;;;5.28;93.88;99788.47;5055222;28;20053;-79
2020/12/21 00:35:50;;;;;;;23.52;13.57;;;;;;;5.18;93.86;99774.09;5055194;28;20053;-79
2020/12/21 00:38:16;;;;;;;22.52;13.45;;;;;;;5.29;93.61;99794.72;5055044;28;20045;-79
2020/12/21 00:40:43;;;;;;;21.10;12.80;;;;;;;5.16;93.98;99778.75;5054527;28;20045;-79
2020/12/21 00:43:09;;;;;;;21.30;11.98;;;;;;;5.33;93.99;99793.47;5054841;28;20067;-79
2020/12/21 00:45:35;;;;;;;23.80;12.82;;;;;;;5.48;93.65;99796.66;5053930;28;20420;-79
2020/12/21 00:48:01;;;;;;;26.65;14.45;;;;;;;5.52;93.83;99792.66;5054900;28;20060;-80
2020/12/21 00:50:28;;;;;;;28.77;15.45;;;;;;;5.42;93.33;99779.16;5054657;28;20049;-79
2020/12/21 00:52:55;;;;;;;26.63;15.27;;;;;;;5.50;93.41;99782.00;5054381;28;20068;-79
2020/12/21 00:55:21;;;;;;;25.15;13.65;;;;;;;5.53;93.62;99790.84;5054594;28;20076;-79
2020/12/21 00:57:47;;;;;;;25.73;13.38;;;;;;;5.47;93.71;99781.44;5054797;28;20045;-78
2020/12/21 01:00:14;;;;;;;29.05;13.70;;;;;;;5.50;93.85;99800.91;5054209;28;20103;-78
2020/12/21 01:02:40;;;;;;;24.08;12.60;;;;;;;5.36;93.80;99776.16;5054593;28;20045;-78
2020/12/21 01:05:06;;;;;;;22.83;13.10;;;;;;;5.50;93.82;99800.91;5039370;28;20047;-78
2020/12/21 01:07:33;;;;;;;25.98;12.98;;;;;;;5.41;94.07;99790.94;5054707;28;20045;-79
2020/12/21 01:10:00;;;;;;;20.63;11.55;;;;;;;5.28;93.80;99779.53;5054739;28;20049;-79
2020/12/21 01:12:28;;;;;;;21.63;12.73;;;;;;;5.32;93.79;99795.28;5054428;28;20053;-79
2020/12/21 01:14:54;;;;;;;19.92;11.73;;;;;;;5.40;93.63;99818.88;5052556;28;20053;-79
2020/12/21 01:17:38;;;;;;;21.33;12.73;;;;;;;5.31;93.49;99801.69;5046488;28;20052;-79
2020/12/21 01:20:12;;;;;;;19.13;11.52;;;;;;;5.35;93.28;99801.41;5053345;28;20048;-79
2020/12/21 01:22:39;;;;;;;21.33;11.95;;;;;;;5.31;93.45;99792.72;5053595;28;20132;-79
2020/12/21 01:25:26;;;;;;;18.48;11.70;;;;;;;5.29;93.01;99803.66;5051814;28;20049;-78
2020/12/21 01:27:53;;;;;;;21.40;12.85;;;;;;;5.24;93.57;99787.03;5052422;28;20051;-78
2020/12/21 01:30:19;;;;;;;22.95;13.10;;;;;;;5.28;93.39;99793.00;5053312;28;20056;-79
2020/12/21 01:32:46;;;;;;;22.35;14.27;;;;;;;5.47;93.12;99808.41;5053514;28;20485;-79
2020/12/21 01:35:12;;;;;;;23.42;12.43;;;;;;;5.32;93.07;99803.38;5038378;28;20056;-77
2020/12/21 01:37:38;;;;;;;25.30;12.18;;;;;;;5.19;93.38;99810.84;5032792;28;20049;-80
2020/12/21 01:40:06;;;;;;;24.08;10.95;;;;;;;5.03;93.13;99789.78;5032750;28;20061;-79
2020/12/21 01:42:32;;;;;;;15.75;10.63;;;;;;;5.17;93.14;99809.28;5036493;28;20048;-79
2020/12/21 01:45:00;;;;;;;19.10;10.93;;;;;;;4.99;93.28;99782.94;5048171;28;20048;-79
2020/12/21 01:47:27;;;;;;;19.38;10.25;;;;;;;5.13;93.57;99805.97;5052838;28;20394;-79
2020/12/21 01:49:53;;;;;;;20.40;11.23;;;;;;;5.12;93.53;99794.38;5051504;28;20478;-80
2020/12/21 01:52:19;;;;;;;21.05;12.55;;;;;;;5.22;93.48;99791.69;5034117;28;20073;-80
2020/12/21 01:54:47;;;;;;;22.35;12.70;;;;;;;5.14;93.53;99789.69;5033654;28;20057;-79
2020/12/21 01:57:13;;;;;;;20.70;12.38;;;;;;;5.29;93.64;99817.13;5037240;28;20045;-79
2020/12/21 01:59:39;;;;;;;23.17;13.10;;;;;;;5.27;93.71;99791.31;5033740;28;20494;-79
2020/12/21 02:02:07;;;;;;;23.83;13.90;;;;;;;5.43;93.55;99809.66;5052765;28;20504;-79
2020/12/21 02:04:33;;;;;;;28.65;14.27;;;;;;;5.52;93.19;99805.31;5053124;28;20071;-80
2020/12/21 02:07:01;;;;;;;26.70;14.38;;;;;;;5.52;93.24;99794.53;5052105;28;20049;-79
2020/12/21 02:09:28;;;;;;;27.85;15.38;;;;;;;5.60;92.96;99789.28;5040421;28;20048;-79
2020/12/21 02:12:21;;;;;;;24.98;13.48;;;;;;;5.49;92.51;99785.72;5052799;28;20049;-79
2020/12/21 02:14:48;;;;;;;20.25;12.55;;;;;;;5.27;93.40;99781.38;5049509;28;20489;-79
2020/12/21 02:17:15;;;;;;;20.98;12.80;;;;;;;5.27;93.04;99780.53;5051965;28;20142;-79
2020/12/21 02:19:45;;;;;;;27.15;13.82;;;;;;;5.34;93.51;99770.88;5052820;28;20045;-79
2020/12/21 02:22:26;;;;;;;32.42;15.25;;;;;;;5.51;93.30;99780.19;5053040;28;20441;-79
2020/12/21 02:24:53;;;;;;;28.48;15.00;;;;;;;5.59;93.29;99787.59;5052788;28;20508;-79
2020/12/21 02:27:19;;;;;;;24.15;12.85;;;;;;;5.54;93.18;99785.31;5059711;28;20146;-79
2020/12/21 02:29:50;;;;;;;24.40;13.05;;;;;;;5.43;92.67;99764.66;5052745;28;20106;-79
2020/12/21 02:32:17;;;;;;;27.85;12.90;;;;;;;5.44;92.76;99787.97;5053144;28;20055;-79
2020/12/21 02:34:44;;;;;;;19.42;11.43;;;;;;;5.29;93.21;99790.16;5052672;28;20124;-79
2020/12/21 02:37:13;;;;;;;17.13;10.90;;;;;;;5.16;93.67;99775.22;5053159;28;20467;-79
2020/12/21 02:39:40;;;;;;;20.15;11.98;;;;;;;5.20;93.65;99796.38;5053240;28;20480;-79
2020/12/21 02:42:09;;;;;;;17.30;10.38;;;;;;;5.14;93.75;99778.06;5053019;28;20045;-79
2020/12/21 02:44:35;;;;;;;20.00;11.82;;;;;;;5.24;93.85;99784.34;5052636;28;20084;-79
2020/12/21 02:47:01;;;;;;;21.70;11.50;;;;;;;5.14;93.54;99775.34;5052716;28;20045;-79
2020/12/21 02:49:31;;;;;;;21.85;11.13;;;;;;;5.20;93.78;99782.06;5052806;28;20106;-79
2020/12/21 02:51:57;;;;;;;19.52;11.60;;;;;;;5.15;93.82;99763.59;5052847;28;20049;-79
2020/12/21 02:54:24;;;;;;;22.02;12.00;;;;;;;5.25;93.48;99769.00;5052125;28;20048;-79
2020/12/21 02:56:52;;;;;;;21.00;12.75;;;;;;;5.29;92.89;99760.50;5052330;28;20111;-79
2020/12/21 02:59:19;;;;;;;24.00;12.00;;;;;;;5.27;93.34;99762.50;5052886;28;20489;-79
2020/12/21 03:01:45;;;;;;;21.05;11.68;;;;;;;5.14;93.29;99735.78;5052858;28;20049;-78
2020/12/21 03:04:11;;;;;;;24.42;12.45;;;;;;;5.39;92.75;99760.56;5052584;28;20045;-79
2020/12/21 03:06:38;;;;;;;20.20;12.65;;;;;;;5.34;92.39;99746.63;5052940;28;20653;-79
2020/12/21 03:09:29;;;;;;;22.90;12.77;;;;;;;5.45;92.41;99768.09;5052609;28;20053;-80
2020/12/21 03:11:57;;;;;;;22.60;12.65;;;;;;;5.40;92.35;99762.25;5052419;28;20060;-79
2020/12/21 03:14:23;;;;;;;27.55;12.32;;;;;;;5.24;91.99;99748.44;5033801;28;20103;-78
2020/12/21 03:16:49;;;;;;;22.10;11.38;;;;;;;5.25;91.86;99755.53;5034014;28;20111;-79
2020/12/21 03:19:16;;;;;;;22.52;12.93;;;;;;;5.26;92.22;99771.56;5036238;28;20049;-79
2020/12/21 03:21:42;;;;;;;21.15;12.48;;;;;;;5.04;91.61;99745.66;5032657;28;20659;-79
2020/12/21 03:24:08;;;;;;;22.95;12.45;;;;;;;5.04;91.95;99755.59;5032031;28;20045;-79
2020/12/21 03:26:34;;;;;;;21.85;12.98;;;;;;;5.06;91.58;99754.47;5040304;28;20440;-79
2020/12/21 03:31:53;;;;;;;21.13;12.18;;;;;;;4.88;91.91;99748.84;5021475;28;20564;-79
2020/12/21 03:34:19;;;;;;;23.35;13.13;;;;;;;4.78;92.24;99739.88;5051018;28;20074;-79
2020/12/21 03:36:46;;;;;;;26.45;13.60;;;;;;;4.90;92.27;99762.19;5049338;28;20653;-79
2020/12/21 03:39:12;;;;;;;25.77;14.25;;;;;;;4.75;92.53;99759.00;5033793;28;20449;-79
2020/12/21 03:41:39;;;;;;;21.02;12.50;;;;;;;4.78;92.60;99769.50;5046929;28;20042;-79
2020/12/21 03:44:06;;;;;;;22.38;13.63;;;;;;;4.60;92.89;99747.69;5033691;28;20422;-79
2020/12/21 03:46:33;;;;;;;18.60;12.40;;;;;;;4.83;92.64;99766.41;5050096;28;20405;-79
2020/12/21 03:48:59;;;;;;;19.85;12.45;;;;;;;4.64;92.65;99738.38;5055935;28;20053;-79
2020/12/21 03:51:25;;;;;;;23.50;12.52;;;;;;;4.72;92.41;99762.78;5055804;28;20386;-79
2020/12/21 03:53:51;;;;;;;20.67;11.95;;;;;;;4.55;92.99;99769.63;5055758;28;20102;-79
2020/12/21 03:56:17;;;;;;;20.60;11.32;;;;;;;4.47;92.85;99780.22;5055476;28;20094;-79
2020/12/21 03:58:44;;;;;;;17.08;9.35;;;;;;;4.41;92.95;99781.59;5056100;28;20103;-79
2020/12/21 04:01:11;;;;;;;19.55;10.95;;;;;;;4.38;93.27;99770.22;5045038;28;20053;-79
2020/12/21 04:03:38;;;;;;;17.30;10.32;;;;;;;4.19;92.65;99757.47;5054174;28;20045;-79
2020/12/21 04:06:05;;;;;;;16.77;10.55;;;;;;;4.21;93.13;99779.72;5055366;28;20057;-79
2020/12/21 04:08:31;;;;;;;14.35;9.27;;;;;;;4.05;92.96;99764.00;5054235;28;20056;-78
2020/12/21 04:10:58;;;;;;;15.25;9.95;;;;;;;4.00;92.56;99759.00;5049584;28;20052;-79
2020/12/21 04:13:24;;;;;;;15.50;9.13;;;;;;;3.90;92.97;99760.78;5038096;28;20398;-79
2020/12/21 04:15:52;;;;;;;18.17;9.90;;;;;;;4.02;93.28;99780.41;5035201;28;20446;-79
2020/12/21 04:18:19;;;;;;;15.55;9.23;;;;;;;3.94;92.86;99767.59;5051509;28;20056;-79
2020/12/21 04:20:46;;;;;;;15.07;9.20;;;;;;;3.98;92.77;99774.44;5055277;28;20049;-79
2020/12/21 04:23:12;;;;;;;17.00;9.85;;;;;;;3.95;92.68;99760.41;5055572;28;20048;-79
2020/12/21 04:25:39;;;;;;;17.00;9.88;;;;;;;4.09;92.61;99784.28;5051502;28;20098;-79
2020/12/21 04:28:06;;;;;;;16.77;10.32;;;;;;;4.01;92.33;99771.47;5054809;28;20056;-79
2020/12/21 04:30:32;;;;;;;16.85;9.57;;;;;;;3.88;92.26;99760.91;5054788;28;20099;-79
2020/12/21 04:32:58;;;;;;;14.93;9.23;;;;;;;3.89;92.64;99754.53;5054861;28;20048;-79
2020/12/21 04:35:25;;;;;;;11.88;8.25;;;;;;;3.71;91.89;99746.16;5055337;28;20052;-79
2020/12/21 04:37:52;;;;;;;12.18;8.60;;;;;;;3.62;91.81;99732.63;5055130;28;20056;-79
2020/12/21 04:40:18;;;;;;;16.98;9.70;;;;;;;3.70;92.76;99739.06;5055184;28;20052;-79
2020/12/21 04:42:48;;;;;;;27.13;12.02;;;;;;;4.05;93.27;99762.19;5054641;28;20111;-79
2020/12/21 04:45:14;;;;;;;;;;;;;;;4.21;93.98;99748.28;5055377;28;20053;-79
2020/12/21 04:47:43;;;;;;;23.33;12.13;;;;;;;4.24;93.18;99736.41;5054809;28;19920;-79
2020/12/21 04:50:11;;;;;;;21.75;11.70;;;;;;;4.04;93.37;99717.41;5055015;28;20055;-79
2020/12/21 04:52:47;;;;;;;17.60;9.90;;;;;;;4.08;93.14;99739.56;5049075;28;20042;-79
2020/12/21 04:55:16;;;;;;;15.40;9.55;;;;;;;3.86;93.25;99730.56;5049973;28;20463;-79
2020/12/21 04:57:53;;;;;;;14.75;9.07;;;;;;;3.81;92.88;99715.78;5054593;28;20481;-79
2020/12/21 05:00:20;;;;;;;15.90;9.63;;;;;;;3.86;92.04;99714.44;5051762;28;20063;-79
2020/12/21 05:02:46;;;;;;;15.63;8.80;;;;;;;3.68;92.25;99710.59;5034610;28;20087;-79
2020/12/21 05:05:12;;;;;;;20.20;9.82;;;;;;;3.50;93.13;99691.47;5049338;28;20041;-79
2020/12/21 05:07:39;;;;;;;13.38;8.32;;;;;;;3.62;92.89;99717.34;5054377;28;20136;-79
2020/12/21 05:10:07;;;;;;;12.60;8.13;;;;;;;3.46;92.77;99722.25;5052888;28;20520;-79
2020/12/21 05:12:34;;;;;;;16.77;8.90;;;;;;;3.34;93.21;99724.09;5053607;28;20052;-79
2020/12/21 05:15:00;;;;;;;20.13;9.38;;;;;;;3.43;93.22;99731.41;5053869;28;20049;-79
2020/12/21 05:17:27;;;;;;;19.77;8.93;;;;;;;3.11;93.49;99721.44;5053756;28;20056;-78
2020/12/21 05:20:03;;;;;;;18.02;10.32;;;;;;;3.24;94.42;99726.69;5053922;28;20065;-79
2020/12/21 05:22:53;;;;;;;20.02;10.10;;;;;;;3.46;94.23;99736.56;5054017;28;20404;-79
2020/12/21 05:25:20;;;;;;;22.48;11.63;;;;;;;3.66;93.88;99737.63;5037127;28;20052;-79
2020/12/21 05:27:47;;;;;;;19.55;11.25;;;;;;;3.48;92.92;99701.50;5040292;28;20107;-79
2020/12/21 05:30:13;;;;;;;14.07;9.25;;;;;;;3.46;92.53;99733.88;5053860;28;20079;-79
2020/12/21 05:32:39;;;;;;;17.60;8.95;;;;;;;3.44;93.31;99743.03;5054018;28;20067;-79
2020/12/21 05:35:07;;;;;;;22.02;10.18;;;;;;;3.33;93.57;99741.25;5053656;28;20053;-79
2020/12/21 05:37:34;;;;;;;16.25;9.10;;;;;;;3.30;93.51;99728.91;5053594;28;20045;-79
2020/12/21 05:40:01;;;;;;;16.13;9.68;;;;;;;3.45;93.38;99737.53;5053519;28;20623;-80
2020/12/21 05:42:28;;;;;;;20.90;9.68;;;;;;;3.30;93.42;99706.56;5049831;28;20049;-79
2020/12/21 05:44:56;;;;;;;16.63;9.55;;;;;;;3.46;93.50;99751.81;5052180;28;20045;-79
2020/12/21 05:47:23;;;;;;;17.40;9.80;;;;;;;3.40;93.75;99758.56;5053684;28;20044;-79
2020/12/21 05:49:55;;;;;;;15.40;9.75;;;;;;;3.50;94.19;99755.97;5053449;28;20041;-79
2020/12/21 05:52:29;;;;;;;18.42;10.90;;;;;;;3.41;93.80;99736.06;5053791;28;20516;-79
2020/12/21 05:54:56;;;;;;;16.52;10.05;;;;;;;3.59;93.47;99765.13;5053294;28;20049;-79
2020/12/21 05:57:27;;;;;;;18.13;10.75;;;;;;;3.49;93.53;99739.00;5053398;28;20095;-79
2020/12/21 05:59:57;;;;;;;15.10;9.50;;;;;;;3.30;93.27;99736.09;5045091;28;20505;-79
2020/12/21 06:02:24;;;;;;;12.55;8.80;;;;;;;3.42;93.53;99758.44;5053522;28;20056;-80
2020/12/21 06:04:56;;;;;;;16.02;9.77;;;;;;;3.45;93.52;99758.22;5053049;28;20395;-79
2020/12/21 06:07:23;;;;;;;15.68;10.00;;;;;;;3.35;93.61;99737.41;5032446;28;20049;-79
2020/12/21 06:09:51;;;;;;;13.02;8.82;;;;;;;3.56;93.41;99763.53;5033568;28;20057;-79
2020/12/21 06:12:20;;;;;;;14.70;8.98;;;;;;;3.50;93.14;99762.19;5033130;28;20050;-79
2020/12/21 06:14:48;;;;;;;17.83;9.48;;;;;;;3.28;93.14;99735.34;5033204;28;20409;-79
2020/12/21 06:17:15;;;;;;;14.80;8.13;;;;;;;3.35;93.33;99748.16;5032913;28;20053;-79
2020/12/21 06:19:42;;;;;;;17.13;9.52;;;;;;;3.35;93.92;99750.03;5047688;28;20059;-79
2020/12/21 06:22:08;;;;;;;15.07;8.48;;;;;;;3.31;93.54;99732.44;5052808;28;20048;-80
2020/12/21 06:24:39;;;;;;;14.55;8.93;;;;;;;3.26;93.92;99740.00;5052769;28;20090;-80
2020/12/21 06:27:15;;;;;;;16.08;9.77;;;;;;;3.37;93.92;99745.34;5053096;28;20052;-79
2020/12/21 06:29:45;;;;;;;16.38;8.98;;;;;;;3.35;94.33;99740.09;5053453;28;20079;-79
2020/12/21 06:32:12;;;;;;;18.27;10.48;;;;;;;3.46;93.98;99752.69;5052683;28;20424;-79
2020/12/21 06:34:39;;;;;;;18.00;9.00;;;;;;;3.28;94.03;99738.94;5047700;28;20045;-79
2020/12/21 06:37:08;;;;;;;16.65;9.57;;;;;;;3.36;93.74;99762.50;5053242;28;20045;-79
2020/12/21 06:39:35;;;;;;;11.57;7.70;;;;;;;3.36;93.88;99757.97;5052977;28;20504;-79
2020/12/21 06:42:03;;;;;;;14.75;8.75;;;;;;;3.36;93.75;99739.13;5053202;28;20152;-79
2020/12/21 06:44:30;;;;;;;16.60;9.07;;;;;;;3.34;93.40;99750.97;5052630;28;20484;-79
2020/12/21 06:46:59;;;;;;;12.70;8.48;;;;;;;3.21;92.88;99712.66;5052875;28;20045;-79
2020/12/21 06:49:25;;;;;;;20.55;11.00;;;;;;;3.43;92.60;99734.09;5052884;28;20409;-79
2020/12/21 06:51:53;;;;;;;16.40;9.15;;;;;;;3.30;93.06;99733.44;5053095;28;20107;-79
2020/12/21 06:54:20;;;;;;;15.90;8.52;;;;;;;3.14;93.93;99706.94;5052774;28;20045;-78
2020/12/21 06:56:48;;;;;;;19.13;9.05;;;;;;;3.45;94.11;99731.31;5052794;28;20053;-79
2020/12/21 06:59:17;;;;;;;17.15;9.65;;;;;;;3.54;93.61;99719.81;5052981;28;20052;-79
2020/12/21 07:01:45;;;;;;;22.65;10.25;;;;;;;3.55;93.73;99705.38;5052685;28;20060;-79
2020/12/21 07:04:16;;;;;;;20.73;9.85;;;;;;;3.60;93.67;99687.03;5052516;28;20049;-79
2020/12/21 07:06:44;;;;;;;28.83;10.93;;;;;;;3.89;93.50;99700.72;5052409;28;20049;-79
2020/12/21 07:09:12;;;;;;;25.75;10.63;;;;;;;3.90;93.65;99701.59;5052812;28;20072;-79
2020/12/21 07:11:39;;;;;;;18.10;8.77;;;;;;;3.80;93.64;99696.13;5052907;28;20103;-79
2020/12/21 07:14:06;;;;;;;13.80;8.35;;;;;;;3.94;93.86;99711.09;5052817;28;20069;-79
2020/12/21 07:16:33;;;;;;;18.20;8.05;;;;;;;3.95;93.57;99685.91;5052353;28;20052;-79
2020/12/21 07:18:59;;;;;;;12.38;7.22;;;;;;;3.91;93.19;99708.66;5053445;28;20048;-79
2020/12/21 07:21:25;;;;;;;14.50;7.07;;;;;;;3.73;93.44;99686.84;5055929;28;20052;-79
2020/12/21 07:23:52;;;;;;;12.18;7.10;;;;;;;3.83;93.72;99689.63;5056573;28;20409;-79
2020/12/21 07:26:19;;;;;;;13.60;7.63;;;;;;;3.84;93.69;99686.81;5056309;28;20049;-78
2020/12/21 07:28:46;;;;;;;15.52;7.63;;;;;;;3.95;93.72;99693.13;5054902;28;20060;-79
2020/12/21 07:31:15;;;;;;;12.60;7.32;;;;;;;4.14;92.75;99701.34;5049567;28;20052;-79
2020/12/21 07:33:53;;;;;;;12.07;7.15;;;;;;;4.03;92.36;99688.78;5053011;28;20052;-79
2020/12/21 07:36:20;;;;;;;13.43;7.50;;;;;;;4.14;92.45;99701.34;5045305;28;20053;-79
2020/12/21 07:38:47;;;;;;;15.77;8.07;;;;;;;4.08;92.23;99691.13;5051261;28;20075;-79
2020/12/21 07:41:15;;;;;;;15.52;8.32;;;;;;;3.91;92.44;99676.38;5053854;28;20045;-79
2020/12/21 07:43:44;;;;;;;14.30;7.18;;;;;;;4.07;92.75;99719.84;5054090;28;20049;-79
2020/12/21 07:46:19;;;;;;;12.43;7.22;;;;;;;3.92;92.96;99690.72;5049878;28;20532;-79
2020/12/21 07:48:46;;;;;;;11.77;6.93;;;;;;;4.12;92.59;99707.84;5050053;28;20135;-79
2020/12/21 07:51:15;;;;;;;12.30;6.60;;;;;;;4.13;92.28;99705.03;5045284;28;20046;-80
2020/12/21 07:53:42;;;;;;;12.15;7.65;;;;;;;4.13;92.15;99704.19;5053805;28;20045;-81
2020/12/21 07:56:14;;;;;;;14.25;7.30;;;;;;;4.13;92.23;99688.03;5043310;28;20115;-80
2020/12/21 07:58:40;;;;;;;11.65;7.38;;;;;;;4.04;92.25;99677.06;5046865;28;20045;-80
2020/12/21 08:01:07;;;;;;;10.00;6.35;;;;;;;4.08;92.44;99694.66;5047236;28;20091;-79
2020/12/21 08:03:38;;;;;;;13.48;7.13;;;;;;;4.02;92.50;99691.63;5053144;28;20450;-79
2020/12/21 08:06:08;;;;;;;12.85;6.82;;;;;;;3.97;92.56;99702.75;5052279;28;20447;-79
2020/12/21 08:08:35;;;;;;;10.52;6.60;;;;;;;3.96;92.65;99710.97;5055402;28;20103;-80
2020/12/21 08:11:02;;;;;;;9.75;6.05;;;;;;;3.89;92.60;99697.19;5053729;28;20053;-80
2020/12/21 08:13:29;;;;;;;9.82;5.93;;;;;;;3.80;92.73;99695.28;5052385;28;20053;-80
2020/12/21 08:16:08;;;;;;;10.73;5.80;;;;;;;3.90;92.79;99715.06;5053217;28;20080;-80
2020/12/21 08:18:35;;;;;;;11.88;6.03;;;;;;;3.89;92.74;99705.25;5052806;28;20119;-80
2020/12/21 08:21:01;;;;;;;9.60;5.95;;;;;;;3.82;92.68;99704.06;5038472;28;20107;-79
2020/12/21 08:23:29;;;;;;;10.93;5.97;;;;;;;3.89;93.00;99708.78;5045631;28;20049;-80
2020/12/21 08:25:56;;;;;;;10.20;5.93;;;;;;;4.01;92.97;99728.44;5052186;28;20048;-80
2020/12/21 08:28:35;;;;;;;9.80;6.28;;;;;;;3.95;93.23;99699.38;5052927;28;20052;-80
2020/12/21 08:31:21;;;;;;;11.23;6.00;;;;;;;4.05;93.36;99705.69;5043065;28;20489;-79
2020/12/21 08:33:59;;;;;;;11.27;6.10;;;;;;;4.01;93.10;99708.75;5052945;28;20045;-79
2020/12/21 08:36:27;;;;;;;14.60;8.10;;;;;;;4.05;92.40;99745.16;5052772;28;20045;-80
2020/12/21 08:39:06;;;;;;;15.73;8.38;;;;;;;3.84;92.11;99726.28;5050043;28;20132;-80
2020/12/21 08:41:37;;;;;;;9.88;6.55;;;;;;;3.72;92.36;99747.88;5046222;28;20053;-80
2020/12/21 08:44:11;;;;;;;10.13;7.00;;;;;;;3.77;92.75;99730.50;5061596;28;20045;-80
2020/12/21 08:46:44;;;;;;;11.02;6.07;;;;;;;3.82;92.65;99728.28;5054719;28;20049;-80
2020/12/21 08:49:10;;;;;;;15.63;6.40;;;;;;;4.03;92.59;99744.44;5054361;28;20059;-80
2020/12/21 08:51:36;;;;;;;10.73;7.00;;;;;;;3.89;92.20;99710.63;5052365;28;20118;-80
2020/12/21 08:54:03;;;;;;;12.88;6.80;;;;;;;3.88;92.70;99725.94;5052117;28;20287;-80
2020/12/21 08:56:29;;;;;;;11.02;7.00;;;;;;;4.00;93.05;99725.88;5052720;28;20068;-80
2020/12/21 08:58:55;;;;;;;11.25;7.07;;;;;;;4.16;92.76;99742.44;5052414;28;20048;-79
2020/12/21 09:01:21;;;;;;;10.00;6.13;;;;;;;4.08;92.85;99729.63;5052479;28;20106;-79
2020/12/21 09:03:49;;;;;;;13.75;8.07;;;;;;;4.15;92.83;99743.41;5052443;28;20484;-79
2020/12/21 09:06:17;;;;;;;16.90;9.38;;;;;;;4.04;93.05;99720.09;5052359;28;20052;-80
2020/12/21 09:08:43;;;;;;;18.73;8.98;;;;;;;4.20;92.60;99746.59;5051883;28;20558;-79
2020/12/21 09:11:09;;;;;;;14.18;8.85;;;;;;;4.14;92.80;99736.34;5052403;28;20053;-79
2020/12/21 09:13:36;;;;;;;22.83;9.88;;;;;;;4.21;92.87;99744.75;5051937;28;20089;-80
2020/12/21 09:16:02;;;;;;;16.02;9.35;;;;;;;4.21;92.75;99723.19;5051987;28;20052;-79
2020/12/21 09:18:28;;;;;;;15.98;9.52;;;;;;;4.35;93.08;99735.47;5040672;28;20044;-79
2020/12/21 09:20:55;;;;;;;19.30;10.32;;;;;;;4.34;93.22;99721.19;5050197;28;20053;-79
2020/12/21 09:23:22;;;;;;;15.43;8.55;;;;;;;4.55;93.44;99740.03;5051241;28;20053;-79
2020/12/21 09:25:48;;;;;;;12.10;6.45;;;;;;;4.52;93.67;99716.06;5051600;28;20063;-79
2020/12/21 09:28:14;;;;;;;16.70;6.47;;;;;;;4.78;93.42;99737.16;5050686;28;20045;-80
2020/12/21 09:30:40;;;;;;;10.32;6.57;;;;;;;4.72;93.04;99716.16;5050835;28;20490;-80
2020/12/21 09:33:07;;;;;;;10.20;7.00;;;;;;;4.91;92.55;99739.66;5051478;28;20064;-80
2020/12/21 09:35:33;;;;;;;11.63;5.68;;;;;;;4.94;92.98;99728.63;5051503;28;20045;-79
2020/12/21 09:38:00;;;;;;;9.23;6.03;;;;;;;4.99;92.89;99730.91;5052021;28;20056;-80
2020/12/21 09:40:27;;;;;;;11.35;6.25;;;;;;;5.11;93.25;99733.34;5051539;28;20120;-79
2020/12/21 09:42:53;;;;;;;12.50;6.30;;;;;;;5.12;92.74;99724.28;5051642;28;20049;-79
2020/12/21 09:45:19;;;;;;;11.27;5.95;;;;;;;5.14;92.76;99722.28;5051347;28;20481;-79
2020/12/21 09:47:46;;;;;;;10.38;6.15;;;;;;;5.21;92.34;99725.31;5051620;28;20286;-80
2020/12/21 09:50:12;;;;;;;12.43;6.85;;;;;;;5.30;92.05;99729.03;5051412;28;20132;-80
2020/12/21 09:52:38;;;;;;;13.32;6.88;;;;;;;5.38;91.87;99731.88;5051790;28;20059;-80
2020/12/21 09:55:06;;;;;;;9.48;6.15;;;;;;;5.34;91.82;99706.19;5050790;28;20103;-80
2020/12/21 09:57:32;;;;;;;10.65;6.03;;;;;;;5.39;91.78;99706.63;5051462;28;20049;-79
2020/12/21 09:59:58;;;;;;;13.18;6.30;;;;;;;5.57;92.07;99724.81;5051501;28;20492;-79
2020/12/21 10:02:25;;;;;;;8.95;5.50;;;;;;;5.65;91.63;99722.28;5051299;28;20053;-80
2020/12/21 10:04:51;;;;;;;8.88;5.78;;;;;;;5.68;91.29;99713.91;5050290;28;20112;-80
2020/12/21 10:07:17;;;;;;;7.63;5.35;;;;;;;5.73;90.85;99710.81;5051194;28;20044;-80
2020/12/21 10:09:43;;;;;;;10.30;4.78;;;;;;;5.72;90.89;99711.78;5051399;28;20049;-80
2020/12/21 10:12:10;;;;;;;9.18;5.45;;;;;;;5.81;90.94;99710.94;5051401;28;20041;-79
2020/12/21 10:14:38;;;;;;;8.60;5.10;;;;;;;5.82;90.67;99697.31;5050742;28;20048;-79
2020/12/21 10:17:04;;;;;;;6.82;5.07;;;;;;;5.84;90.52;99694.47;5050438;28;20048;-79
2020/12/21 10:19:30;;;;;;;8.65;4.85;;;;;;;5.87;90.50;99683.38;5050268;28;20037;-79
2020/12/21 10:21:56;;;;;;;7.20;5.00;;;;;;;6.02;90.12;99686.53;5035315;28;20112;-79
2020/12/21 10:24:23;;;;;;;9.93;4.95;;;;;;;5.88;89.53;99657.28;5038476;28;20041;-80
2020/12/21 10:26:49;;;;;;;8.05;4.97;;;;;;;6.08;89.73;99664.41;5051039;28;20048;-80
2020/12/21 10:29:16;;;;;;;9.05;4.85;;;;;;;6.07;89.60;99654.59;5050864;28;20049;-80
2020/12/21 10:31:42;;;;;;;8.70;4.93;;;;;;;6.17;90.17;99677.03;5051366;28;20489;-80
2020/12/21 10:34:09;;;;;;;9.77;4.70;;;;;;;6.07;89.70;99664.50;5052934;28;20095;-80
2020/12/21 10:36:35;;;;;;;8.45;4.25;;;;;;;6.09;89.52;99668.78;5052795;28;20037;-80
2020/12/21 10:39:01;;;;;;;7.15;4.20;;;;;;;6.20;89.83;99665.94;5051842;28;20114;-80
2020/12/21 10:41:31;;;;;;;8.80;6.30;;;;;;;6.30;89.79;99656.97;5050467;28;20221;-80
2020/12/21 10:43:57;;;;;;;9.38;6.22;;;;;;;6.13;89.79;99656.72;5050463;28;20041;-80
2020/12/21 10:46:25;;;;;;;12.40;6.80;;;;;;;5.91;90.35;99633.53;5050640;28;20041;-81
2020/12/21 10:48:51;;;;;;;11.63;6.57;;;;;;;6.17;90.50;99650.03;5050820;28;20480;-80
2020/12/21 10:51:25;;;;;;;8.35;4.95;;;;;;;6.19;89.19;99658.81;5050773;28;20056;-80
2020/12/21 10:53:52;;;;;;;7.25;4.28;;;;;;;6.19;87.96;99641.78;5051464;28;20489;-80
2020/12/21 10:56:18;;;;;;;8.52;5.45;;;;;;;6.32;88.30;99650.44;5054422;28;20409;-80
2020/12/21 10:58:44;;;;;;;9.65;5.10;;;;;;;6.26;88.04;99636.66;5054861;28;20489;-80
2020/12/21 11:01:10;;;;;;;9.85;5.07;;;;;;;6.34;88.33;99653.00;5055365;28;20432;-80
2020/12/21 11:03:37;;;;;;;9.98;5.30;;;;;;;6.13;88.11;99631.56;5054823;28;20409;-79
2020/12/21 11:06:08;;;;;;;8.07;5.18;;;;;;;6.24;89.09;99641.34;5054595;28;20493;-80
2020/12/21 11:08:34;;;;;;;;;;;;;;;6.25;88.11;99640.34;5055499;28;20041;-80
2020/12/21 11:11:03;;;;;;;7.85;5.20;;;;;;;6.14;88.58;99630.56;5055934;28;19920;-80
2020/12/21 11:13:29;;;;;;;8.23;5.25;;;;;;;6.23;88.63;99635.06;5055827;28;20045;-80
2020/12/21 11:15:55;;;;;;;10.15;4.97;;;;;;;6.11;89.69;99618.22;5054533;28;20501;-80
2020/12/21 11:18:22;;;;;;;12.35;5.32;;;;;;;6.16;89.49;99629.41;5054085;28;20045;-80
2020/12/21 11:20:49;;;;;;;7.40;4.55;;;;;;;6.22;89.29;99646.91;5054652;28;20413;-80
2020/12/21 11:23:15;;;;;;;10.48;5.05;;;;;;;6.17;88.78;99636.53;5054129;28;20057;-80
2020/12/21 11:25:41;;;;;;;12.90;5.25;;;;;;;6.12;89.05;99640.66;5054721;28;20437;-80
2020/12/21 11:28:08;;;;;;;10.95;5.00;;;;;;;6.20;89.27;99633.53;5053978;28;20114;-80
2020/12/21 11:30:34;;;;;;;9.50;5.53;;;;;;;6.21;88.17;99620.88;5049642;28;20056;-80
2020/12/21 11:33:01;;;;;;;14.32;6.57;;;;;;;6.28;87.94;99627.41;5054092;28;20086;-80
2020/12/21 11:35:27;;;;;;;11.48;6.95;;;;;;;6.22;87.68;99613.63;5052228;28;20040;-80
2020/12/21 11:37:56;;;;;;;10.20;5.47;;;;;;;6.17;87.92;99614.06;5053616;28;20107;-80